createdAt,value
2019-05-16T00:01:38.555Z,67.20
2019-05-16T00:04:08.704Z,67.90
2019-05-16T00:06:39.100Z,67.90
2019-05-16T00:09:08.548Z,67.80
2019-05-16T00:11:38.431Z,68.00
2019-05-16T00:14:08.346Z,68.00
2019-05-16T00:16:38.170Z,68.30
2019-05-16T00:19:09.004Z,70.20
2019-05-16T00:21:38.525Z,71.10
2019-05-16T00:24:08.236Z,72.10
2019-05-16T00:26:38.806Z,72.20
2019-05-16T00:29:08.234Z,72.70
2019-05-16T00:31:38.193Z,72.50
2019-05-16T00:34:09.594Z,72.50
2019-05-16T00:36:38.594Z,72.70
2019-05-16T00:39:08.421Z,72.00
2019-05-16T00:41:38.579Z,71.90
2019-05-16T00:44:08.406Z,71.80
2019-05-16T00:46:38.622Z,72.80
2019-05-16T00:49:08.511Z,73.60
2019-05-16T00:51:38.188Z,74.70
2019-05-16T00:54:08.231Z,74.10
2019-05-16T00:56:38.383Z,74.80
2019-05-16T00:59:09.326Z,74.30
2019-05-16T01:01:38.859Z,75.60
2019-05-16T01:04:08.722Z,75.00
2019-05-16T01:06:38.206Z,74.90
2019-05-16T01:09:08.745Z,74.80
2019-05-16T01:11:38.258Z,74.70
2019-05-16T01:14:08.493Z,74.80
2019-05-16T01:16:38.352Z,75.10
2019-05-16T01:19:08.488Z,75.20
2019-05-16T01:21:39.106Z,76.10
2019-05-16T01:24:08.493Z,75.60
2019-05-16T01:26:57.796Z,76.20
2019-05-16T01:29:28.231Z,75.90
2019-05-16T01:31:58.995Z,75.70
2019-05-16T01:34:28.519Z,76.40
2019-05-16T01:36:59.026Z,76.20
2019-05-16T01:39:28.750Z,77.20
2019-05-16T01:41:58.746Z,76.70
2019-05-16T01:44:28.841Z,76.30
2019-05-16T01:46:58.619Z,76.70
2019-05-16T01:49:28.064Z,77.90
2019-05-16T01:51:57.883Z,77.40
2019-05-16T01:54:28.278Z,77.90
2019-05-16T01:56:59.460Z,77.60
2019-05-16T01:59:28.810Z,77.50
2019-05-16T02:02:00.713Z,77.50
2019-05-16T02:04:29.050Z,77.20
2019-05-16T02:06:58.587Z,77.50
2019-05-16T02:09:28.121Z,76.80
2019-05-16T02:11:58.905Z,77.00
2019-05-16T02:14:28.363Z,77.60
2019-05-16T02:16:58.063Z,78.40
2019-05-16T02:19:28.015Z,78.20
2019-05-16T02:21:59.490Z,77.00
2019-05-16T02:24:28.522Z,78.70
2019-05-16T02:26:58.917Z,78.30
2019-05-16T02:29:29.889Z,77.00
2019-05-16T02:32:01.864Z,76.90
2019-05-16T02:34:30.818Z,76.20
2019-05-16T02:37:18.422Z,75.90
2019-05-16T02:39:31.082Z,76.20
2019-05-16T02:42:01.042Z,77.50
2019-05-16T02:44:31.732Z,76.90
2019-05-16T02:47:01.847Z,76.70
2019-05-16T02:49:34.079Z,76.10
2019-05-16T02:52:02.143Z,76.50
2019-05-16T02:54:31.733Z,76.80
2019-05-16T02:57:01.592Z,76.90
2019-05-16T02:59:30.909Z,78.80
2019-05-16T03:02:01.117Z,78.50
2019-05-16T03:04:30.828Z,78.30
2019-05-16T03:07:01.354Z,77.60
2019-05-16T03:09:32.041Z,77.60
2019-05-16T03:12:03.053Z,77.80
2019-05-16T03:14:33.044Z,78.40
2019-05-16T03:17:04.961Z,79.00
2019-05-16T03:19:37.485Z,80.30
2019-05-16T03:22:07.790Z,79.20
2019-05-16T03:24:36.925Z,78.40
2019-05-16T03:27:06.036Z,77.90
2019-05-16T03:29:35.206Z,77.50
2019-05-16T03:32:04.345Z,77.30
2019-05-16T03:34:34.646Z,76.60
2019-05-16T03:37:04.999Z,77.00
2019-05-16T03:39:34.497Z,77.60
2019-05-16T03:42:03.639Z,77.60
2019-05-16T03:44:32.815Z,78.50
2019-05-16T03:47:01.964Z,77.70
2019-05-16T03:49:31.440Z,77.00
2019-05-16T03:52:01.572Z,76.90
2019-05-16T03:54:31.670Z,77.40
2019-05-16T03:57:01.133Z,77.10
2019-05-16T03:59:31.482Z,77.00
2019-05-16T04:02:01.730Z,77.40
2019-05-16T04:04:31.154Z,79.20
2019-05-16T04:07:01.385Z,79.50
2019-05-16T04:09:31.639Z,78.20
2019-05-16T04:12:01.982Z,78.30
2019-05-16T04:14:31.612Z,79.20
2019-05-16T04:17:01.843Z,79.60
2019-05-16T04:19:31.543Z,79.70
2019-05-16T04:22:01.486Z,79.20
2019-05-16T04:24:31.579Z,80.70
2019-05-16T04:27:01.232Z,81.20
2019-05-16T04:29:31.638Z,80.60
2019-05-16T04:32:01.637Z,81.00
2019-05-16T04:34:31.396Z,80.60
2019-05-16T04:37:01.332Z,79.80
2019-05-16T04:39:31.882Z,80.70
2019-05-16T04:42:01.756Z,81.60
2019-05-16T04:44:31.293Z,80.50
2019-05-16T04:47:01.383Z,79.70
2019-05-16T04:49:31.898Z,80.50
2019-05-16T04:52:01.397Z,79.30
2019-05-16T04:54:30.981Z,78.00
2019-05-16T04:57:01.548Z,77.00
2019-05-16T04:59:31.464Z,77.60
2019-05-16T05:02:01.918Z,76.40
2019-05-16T05:04:31.595Z,77.10
2019-05-16T05:07:00.950Z,77.80
2019-05-16T05:09:31.571Z,76.90
2019-05-16T05:12:04.329Z,76.80
2019-05-16T05:14:32.082Z,76.20
2019-05-16T05:17:04.848Z,77.50
2019-05-16T05:19:32.145Z,79.00
2019-05-16T05:22:01.439Z,78.10
2019-05-16T05:24:30.653Z,77.40
2019-05-16T05:26:59.936Z,77.90
2019-05-16T05:29:30.683Z,78.40
2019-05-16T05:32:04.396Z,78.80
2019-05-16T05:34:31.058Z,78.80
2019-05-16T05:37:00.406Z,78.80
2019-05-16T05:39:30.298Z,78.00
2019-05-16T05:42:00.165Z,79.40
2019-05-16T05:44:30.697Z,77.80
2019-05-16T05:47:00.687Z,76.50
2019-05-16T05:49:30.255Z,76.10
2019-05-16T05:52:00.842Z,76.40
2019-05-16T05:54:30.894Z,76.70
2019-05-16T05:57:00.698Z,77.10
2019-05-16T05:59:30.617Z,76.90
2019-05-16T06:02:01.017Z,76.20
2019-05-16T06:04:30.622Z,76.50
2019-05-16T06:07:01.223Z,75.70
2019-05-16T06:09:33.156Z,75.30
2019-05-16T06:12:02.135Z,75.10
2019-05-16T06:14:31.286Z,75.20
2019-05-16T06:17:00.550Z,75.80
2019-05-16T06:19:29.870Z,76.00
2019-05-16T06:22:01.155Z,75.70
2019-05-16T06:24:30.603Z,76.20
2019-05-16T06:27:00.955Z,75.30
2019-05-16T06:29:31.041Z,74.20
2019-05-16T06:32:00.382Z,74.00
2019-05-16T06:34:30.149Z,73.20
2019-05-16T06:37:00.466Z,72.40
2019-05-16T06:39:41.198Z,71.70
2019-05-16T06:42:00.771Z,70.90
2019-05-16T06:44:30.832Z,71.80
2019-05-16T06:47:15.973Z,69.90
2019-05-16T06:49:31.323Z,69.50
2019-05-16T06:52:00.462Z,71.00
2019-05-16T06:54:29.991Z,68.60
2019-05-16T06:57:00.194Z,69.30
2019-05-16T06:59:29.835Z,70.30
2019-05-16T07:02:00.437Z,69.70
2019-05-16T07:04:30.476Z,70.00
2019-05-16T07:07:02.861Z,70.80
2019-05-16T07:09:30.783Z,70.10
2019-05-16T07:11:59.986Z,69.70
2019-05-16T07:14:31.333Z,71.00
2019-05-16T07:17:00.379Z,71.20
2019-05-16T07:19:30.155Z,69.50
2019-05-16T07:22:00.169Z,69.30
2019-05-16T07:24:30.563Z,69.30
2019-05-16T07:27:00.416Z,69.00
2019-05-16T07:29:30.841Z,69.10
2019-05-16T07:32:00.576Z,69.20
2019-05-16T07:34:31.117Z,69.00
2019-05-16T07:37:00.708Z,68.80
2019-05-16T07:39:30.684Z,68.40
2019-05-16T07:42:00.126Z,68.50
2019-05-16T07:44:30.929Z,67.70
2019-05-16T07:47:00.955Z,67.80
2019-05-16T07:49:30.632Z,68.00
2019-05-16T07:52:00.585Z,68.40
2019-05-16T07:54:34.278Z,67.90
2019-05-16T07:57:11.357Z,68.00
2019-05-16T07:59:31.929Z,67.70
2019-05-16T08:02:01.109Z,67.30
2019-05-16T08:04:30.575Z,67.90
2019-05-16T08:07:00.643Z,66.70
2019-05-16T08:09:30.745Z,67.20
2019-05-16T08:12:02.302Z,66.60
2019-05-16T08:14:34.950Z,64.80
2019-05-16T08:17:01.917Z,66.40
2019-05-16T08:19:31.105Z,66.50
2019-05-16T08:22:01.379Z,66.40
2019-05-16T08:24:35.564Z,66.90
2019-05-16T08:27:02.030Z,68.00
2019-05-16T08:29:31.816Z,66.30
2019-05-16T08:32:02.201Z,67.20
2019-05-16T08:34:32.340Z,66.80
2019-05-16T08:37:01.840Z,67.40
2019-05-16T08:39:31.327Z,66.80
2019-05-16T08:42:07.772Z,66.20
2019-05-16T08:44:32.514Z,67.50
2019-05-16T08:47:05.863Z,66.40
2019-05-16T08:49:32.887Z,65.40
2019-05-16T08:52:02.049Z,65.00
2019-05-16T08:54:32.003Z,65.20
2019-05-16T08:57:17.418Z,63.90
2019-05-16T08:59:33.915Z,64.80
2019-05-16T09:02:03.737Z,64.80
2019-05-16T09:04:34.107Z,64.10
2019-05-16T09:07:03.709Z,63.70
2019-05-16T09:10:33.708Z,63.80
2019-05-16T09:12:03.841Z,64.40
2019-05-16T09:14:38.063Z,64.80
2019-05-16T09:17:04.229Z,61.60
2019-05-16T09:19:52.453Z,60.80
2019-05-16T09:22:21.932Z,61.10
2019-05-16T09:24:51.084Z,61.40
2019-05-16T09:27:20.669Z,61.70
2019-05-16T09:29:49.816Z,62.20
2019-05-16T09:32:21.643Z,63.40
2019-05-16T09:34:50.049Z,62.80
2019-05-16T09:37:19.233Z,62.50
2019-05-16T09:39:48.497Z,62.60
2019-05-16T09:42:17.688Z,61.20
2019-05-16T09:44:47.627Z,60.00
2019-05-16T09:47:17.840Z,60.20
2019-05-16T09:49:47.698Z,61.50
2019-05-16T09:52:17.205Z,61.60
2019-05-16T09:54:46.841Z,61.00
2019-05-16T09:57:17.554Z,60.90
2019-05-16T09:59:46.963Z,59.00
2019-05-16T10:02:17.642Z,59.10
2019-05-16T10:04:47.523Z,57.60
2019-05-16T10:07:17.966Z,56.50
2019-05-16T10:09:50.204Z,55.90
2019-05-16T10:12:18.790Z,57.60
2019-05-16T10:14:48.292Z,56.50
2019-05-16T10:17:17.841Z,55.40
2019-05-16T10:19:47.559Z,56.00
2019-05-16T10:22:17.637Z,54.70
2019-05-16T10:24:47.745Z,55.00
2019-05-16T10:27:17.377Z,53.80
2019-05-16T10:29:48.514Z,54.60
2019-05-16T10:32:17.532Z,56.40
2019-05-16T10:34:46.935Z,55.90
2019-05-16T10:37:17.572Z,55.50
2019-05-16T10:39:47.221Z,56.00
2019-05-16T10:42:28.010Z,57.40
2019-05-16T10:44:48.654Z,56.30
2019-05-16T10:47:18.153Z,55.60
2019-05-16T10:49:47.768Z,54.30
2019-05-16T10:52:17.293Z,53.70
2019-05-16T10:54:57.301Z,54.70
2019-05-16T10:57:17.462Z,53.60
2019-05-16T11:00:01.968Z,54.90
2019-05-16T11:02:18.282Z,55.70
2019-05-16T11:04:57.457Z,57.60
2019-05-16T11:07:18.432Z,55.70
2019-05-16T11:09:57.961Z,53.90
2019-05-16T11:12:20.464Z,53.40
2019-05-16T11:14:50.285Z,55.80
2019-05-16T11:17:19.440Z,57.00
2019-05-16T11:19:48.703Z,55.50
2019-05-16T11:22:17.889Z,55.90
2019-05-16T11:24:47.274Z,55.60
2019-05-16T11:27:16.536Z,55.90
2019-05-16T11:29:47.303Z,54.60
2019-05-16T11:32:16.654Z,54.20
2019-05-16T11:34:47.919Z,53.80
2019-05-16T11:37:17.937Z,54.60
2019-05-16T11:39:47.172Z,54.10
2019-05-16T11:42:17.523Z,51.90
2019-05-16T11:44:47.768Z,53.90
2019-05-16T11:47:17.192Z,55.00
2019-05-16T11:49:47.590Z,54.10
2019-05-16T11:52:18.083Z,55.30
2019-05-16T11:54:47.637Z,54.60
2019-05-16T11:57:17.876Z,53.30
2019-05-16T11:59:47.463Z,52.50
2019-05-16T12:02:17.506Z,54.30
2019-05-16T12:04:47.339Z,55.50
2019-05-16T12:07:19.121Z,53.70
2019-05-16T12:09:54.556Z,53.40
2019-05-16T12:12:20.749Z,55.00
2019-05-16T12:14:49.389Z,54.20
2019-05-16T12:17:18.561Z,54.20
2019-05-16T12:19:50.295Z,52.60
2019-05-16T12:22:18.718Z,53.70
2019-05-16T12:24:47.942Z,53.80
2019-05-16T12:27:17.333Z,53.70
2019-05-16T12:29:50.130Z,52.40
2019-05-16T12:32:17.657Z,53.50
2019-05-16T12:34:46.836Z,53.20
2019-05-16T12:37:16.007Z,52.50
2019-05-16T12:39:47.065Z,52.30
2019-05-16T12:42:16.164Z,53.10
2019-05-16T12:44:46.871Z,54.70
2019-05-16T12:47:16.168Z,54.20
2019-05-16T12:49:47.229Z,55.70
2019-05-16T12:52:16.233Z,56.30
2019-05-16T12:54:47.588Z,55.80
2019-05-16T12:57:18.234Z,55.90
2019-05-16T12:59:50.039Z,56.20
2019-05-16T13:02:21.497Z,56.60
2019-05-16T13:04:49.231Z,56.30
2019-05-16T13:07:18.704Z,56.70
2019-05-16T13:09:50.286Z,55.50
2019-05-16T13:12:18.939Z,55.80
2019-05-16T13:14:48.167Z,55.40
2019-05-16T13:17:17.397Z,56.60
2019-05-16T13:19:48.281Z,56.70
2019-05-16T13:22:17.639Z,55.70
2019-05-16T13:24:47.898Z,56.70
2019-05-16T13:27:22.922Z,54.60
2019-05-16T13:29:48.367Z,55.00
2019-05-16T13:32:17.612Z,55.90
2019-05-16T13:34:46.780Z,55.80
2019-05-16T13:37:17.965Z,56.40
2019-05-16T13:39:47.604Z,55.60
2019-05-16T13:42:17.096Z,55.60
2019-05-16T13:44:47.172Z,55.90
2019-05-16T13:47:17.390Z,56.30
2019-05-16T13:49:46.843Z,55.70
2019-05-16T13:52:16.701Z,56.20
2019-05-16T13:54:46.323Z,55.70
2019-05-16T13:57:17.169Z,55.50
2019-05-16T13:59:46.352Z,56.30
2019-05-16T14:02:17.404Z,56.30
2019-05-16T14:04:46.502Z,56.40
2019-05-16T14:07:17.192Z,56.70
2019-05-16T14:09:47.316Z,56.30
2019-05-16T14:12:17.631Z,55.70
2019-05-16T14:14:47.885Z,55.00
2019-05-16T14:17:17.829Z,56.20
2019-05-16T14:19:48.068Z,56.80
2019-05-16T14:22:17.787Z,56.70
2019-05-16T14:24:48.122Z,56.00
2019-05-16T14:27:17.977Z,56.40
2019-05-16T14:29:47.657Z,57.10
2019-05-16T14:32:19.973Z,56.00
2019-05-16T14:34:51.694Z,56.40
2019-05-16T14:37:20.631Z,57.10
2019-05-16T14:39:49.793Z,58.30
2019-05-16T14:42:19.041Z,59.10
2019-05-16T14:45:03.961Z,58.50
2019-05-16T14:47:19.357Z,57.30
2019-05-16T14:49:49.145Z,56.60
2019-05-16T14:52:18.520Z,57.10
2019-05-16T14:54:47.691Z,58.30
2019-05-16T14:57:16.953Z,57.80
2019-05-16T14:59:47.093Z,57.40
2019-05-16T15:02:18.161Z,58.00
2019-05-16T15:04:49.668Z,57.20
2019-05-16T15:07:19.510Z,57.40
2019-05-16T15:09:48.781Z,57.80
2019-05-16T15:12:17.971Z,56.70
2019-05-16T15:14:47.140Z,57.50
2019-05-16T15:17:16.874Z,58.40
2019-05-16T15:19:46.723Z,58.40
2019-05-16T15:22:16.762Z,59.50
2019-05-16T15:24:46.385Z,59.40
2019-05-16T15:27:17.032Z,58.50
2019-05-16T15:29:48.156Z,58.30
2019-05-16T15:32:17.726Z,57.30
2019-05-16T15:34:47.825Z,57.40
2019-05-16T15:37:17.805Z,58.60
2019-05-16T15:39:47.717Z,57.70
2019-05-16T15:42:17.998Z,57.20
2019-05-16T15:44:47.521Z,59.00
2019-05-16T15:47:17.610Z,58.70
2019-05-16T15:49:47.730Z,59.00
2019-05-16T15:52:17.469Z,58.80
2019-05-16T15:54:46.918Z,59.60
2019-05-16T15:57:17.659Z,59.80
2019-05-16T15:59:47.130Z,59.10
2019-05-16T16:02:17.641Z,59.10
2019-05-16T16:04:47.748Z,59.90
2019-05-16T16:07:18.154Z,60.20
2019-05-16T16:09:47.562Z,60.30
2019-05-16T16:12:17.155Z,60.40
2019-05-16T16:14:46.855Z,60.00
2019-05-16T16:17:17.633Z,59.20
2019-05-16T16:19:47.141Z,59.20
2019-05-16T16:22:17.660Z,59.70
2019-05-16T16:24:47.893Z,61.20
2019-05-16T16:27:17.267Z,61.10
2019-05-16T16:29:48.015Z,60.70
2019-05-16T16:32:17.510Z,60.60
2019-05-16T16:34:48.982Z,60.00
2019-05-16T16:37:17.572Z,59.80
2019-05-16T16:39:47.271Z,60.30
2019-05-16T16:42:16.858Z,61.00
2019-05-16T16:44:47.229Z,59.80
2019-05-16T16:47:17.764Z,60.30
2019-05-16T16:49:47.055Z,60.60
2019-05-16T16:52:16.754Z,60.10
2019-05-16T16:54:47.683Z,60.30
2019-05-16T16:57:17.695Z,60.50
2019-05-16T16:59:47.776Z,61.20
2019-05-16T17:02:17.305Z,61.60
2019-05-16T17:04:51.152Z,62.40
2019-05-16T17:07:18.053Z,62.10
2019-05-16T17:09:47.226Z,61.20
2019-05-16T17:12:16.368Z,61.50
2019-05-16T17:14:46.471Z,61.30
2019-05-16T17:17:17.595Z,61.30
2019-05-16T17:19:47.494Z,61.10
2019-05-16T17:22:20.677Z,61.70
2019-05-16T17:24:48.073Z,61.80
2019-05-16T17:27:17.481Z,62.20
2019-05-16T17:29:47.464Z,62.10
2019-05-16T17:32:16.839Z,61.70
2019-05-16T17:34:46.193Z,62.20
2019-05-16T17:37:17.134Z,62.70
2019-05-16T17:39:47.491Z,62.10
2019-05-16T17:42:16.877Z,62.50
2019-05-16T17:44:47.225Z,63.10
2019-05-16T17:47:17.427Z,63.80
2019-05-16T17:49:46.820Z,62.80
2019-05-16T17:52:16.646Z,64.00
2019-05-16T17:54:46.262Z,64.50
2019-05-16T17:57:16.983Z,66.30
2019-05-16T17:59:48.037Z,66.50
2019-05-16T18:02:17.538Z,65.90
2019-05-16T18:04:47.133Z,67.20
2019-05-16T18:07:16.875Z,67.30
2019-05-16T18:09:48.314Z,67.90
2019-05-16T18:12:17.641Z,68.10
2019-05-16T18:14:50.197Z,67.60
2019-05-16T18:17:17.945Z,68.30
2019-05-16T18:19:47.149Z,68.00
2019-05-16T18:22:16.341Z,68.60
2019-05-16T18:24:47.454Z,68.00
2019-05-16T18:27:17.193Z,68.40
2019-05-16T18:29:47.128Z,68.30
2019-05-16T18:32:18.329Z,69.80
2019-05-16T18:34:47.548Z,70.20
2019-05-16T18:37:17.303Z,69.10
2019-05-16T18:39:47.402Z,68.20
2019-05-16T18:42:16.913Z,68.80
2019-05-16T18:44:47.190Z,69.30
2019-05-16T18:47:16.594Z,68.90
2019-05-16T18:49:47.349Z,69.70
2019-05-16T18:52:17.406Z,70.50
2019-05-16T18:54:46.934Z,71.30
2019-05-16T18:57:17.594Z,71.70
2019-05-16T18:59:47.063Z,71.10
2019-05-16T19:02:17.967Z,70.50
2019-05-16T19:04:50.108Z,69.70
2019-05-16T19:07:18.330Z,68.20
2019-05-16T19:09:47.527Z,69.40
2019-05-16T19:12:17.022Z,68.40
2019-05-16T19:14:47.283Z,68.70
2019-05-16T19:17:22.194Z,69.60
2019-05-16T19:19:47.551Z,70.20
2019-05-16T19:22:17.131Z,70.20
2019-05-16T19:24:46.580Z,70.40
2019-05-16T19:27:17.223Z,70.20
2019-05-16T19:29:46.561Z,70.20
2019-05-16T19:32:17.192Z,70.70
2019-05-16T19:34:49.073Z,71.20
2019-05-16T19:37:17.382Z,71.70
2019-05-16T19:39:46.593Z,72.00
2019-05-16T19:42:17.090Z,72.50
2019-05-16T19:44:46.713Z,73.10
2019-05-16T19:47:16.139Z,73.30
2019-05-16T19:49:46.447Z,73.50
2019-05-16T19:52:16.390Z,73.60
2019-05-16T19:54:47.124Z,74.10
2019-05-16T19:57:17.490Z,74.90
2019-05-16T19:59:47.260Z,75.70
2019-05-16T20:02:16.700Z,75.50
2019-05-16T20:04:47.106Z,75.80
2019-05-16T20:07:16.914Z,76.00
2019-05-16T20:09:46.957Z,76.30
2019-05-16T20:12:16.841Z,76.50
2019-05-16T20:14:47.319Z,76.80
2019-05-16T20:17:19.166Z,77.20
2019-05-16T20:19:47.526Z,77.20
2019-05-16T20:22:16.747Z,77.20
2019-05-16T20:24:46.887Z,77.40
2019-05-16T20:27:19.232Z,77.60
2019-05-16T20:29:47.504Z,77.80
2019-05-16T20:32:16.980Z,77.80
2019-05-16T20:34:46.970Z,78.00
2019-05-16T20:37:17.381Z,77.90
2019-05-16T20:39:46.906Z,78.10
2019-05-16T20:42:17.098Z,78.60
2019-05-16T20:44:49.759Z,78.90
2019-05-16T20:47:17.796Z,79.10
2019-05-16T20:49:47.759Z,79.40
2019-05-16T20:52:18.162Z,79.00
2019-05-16T20:54:49.814Z,79.00
2019-05-16T20:57:18.313Z,79.30
2019-05-16T20:59:49.197Z,79.20
2019-05-16T21:02:19.017Z,79.40
2019-05-16T21:04:48.228Z,79.40
2019-05-16T21:07:17.496Z,79.50
2019-05-16T21:09:46.662Z,79.40
2019-05-16T21:12:17.286Z,79.70
2019-05-16T21:14:46.600Z,80.00
2019-05-16T21:17:17.412Z,80.10
2019-05-16T21:19:48.310Z,80.20
2019-05-16T21:22:19.414Z,80.70
2019-05-16T21:24:48.772Z,80.70
2019-05-16T21:27:19.015Z,80.60
2019-05-16T21:29:50.388Z,81.10
2019-05-16T21:32:19.681Z,81.40
2019-05-16T21:34:48.868Z,82.00
2019-05-16T21:37:20.488Z,81.30
2019-05-16T21:39:49.023Z,81.40
2019-05-16T21:42:18.185Z,81.50
2019-05-16T21:44:47.573Z,81.60
2019-05-16T21:47:19.507Z,82.00
2019-05-16T21:49:47.948Z,81.70
2019-05-16T21:52:17.108Z,81.80
2019-05-16T21:54:47.222Z,82.00
2019-05-16T21:57:19.617Z,82.20
2019-05-16T21:59:47.852Z,82.10
2019-05-16T22:02:17.381Z,82.00
2019-05-16T22:04:47.342Z,81.70
2019-05-16T22:07:16.685Z,81.80
2019-05-16T22:09:46.599Z,81.70
2019-05-16T22:12:17.367Z,81.90
2019-05-16T22:14:51.178Z,81.50
2019-05-16T22:17:20.325Z,81.80
2019-05-16T22:19:49.509Z,82.40
2019-05-16T22:22:18.736Z,82.30
2019-05-16T22:24:49.306Z,82.60
2019-05-16T22:27:21.875Z,82.70
2019-05-16T22:29:51.124Z,82.60
2019-05-16T22:32:20.376Z,82.90
2019-05-16T22:34:49.549Z,83.20
2019-05-16T22:37:18.716Z,83.10
2019-05-16T22:39:47.886Z,83.00
2019-05-16T22:42:17.693Z,83.20
2019-05-16T22:44:48.093Z,83.80
2019-05-16T22:47:17.634Z,83.90
2019-05-16T22:49:47.509Z,84.00
2019-05-16T22:52:17.271Z,84.30
2019-05-16T22:54:47.559Z,84.50
2019-05-16T22:57:17.690Z,84.70
2019-05-16T22:59:48.608Z,85.00
2019-05-16T23:02:18.177Z,84.70
2019-05-16T23:04:47.643Z,84.60
2019-05-16T23:07:17.180Z,83.80
2019-05-16T23:09:47.222Z,83.60
2019-05-16T23:12:17.407Z,84.20
2019-05-16T23:14:46.832Z,84.40
2019-05-16T23:17:17.226Z,84.30
2019-05-16T23:19:47.471Z,84.80
2019-05-16T23:22:17.003Z,85.00
2019-05-16T23:24:46.496Z,85.30
2019-05-16T23:27:15.727Z,87.50
2019-05-16T23:29:47.351Z,85.30
2019-05-16T23:32:16.259Z,85.10
2019-05-16T23:34:46.634Z,86.80
2019-05-16T23:37:16.012Z,87.60
2019-05-16T23:39:47.310Z,87.10
2019-05-16T23:42:16.053Z,87.50
2019-05-16T23:44:47.264Z,86.40
2019-05-16T23:47:16.561Z,85.90
2019-05-16T23:49:47.301Z,86.80
2019-05-16T23:52:16.969Z,86.90
2019-05-16T23:54:47.498Z,88.50
2019-05-16T23:57:17.208Z,86.80
2019-05-16T23:59:47.319Z,86.80
